sensor_id;sensor_type;location;lat;lon;timestamp;P1;durP1;ratioP1;P2;durP2;ratioP2
2326;SDS011;1174;51.588;7.328;2024-02-16T00:01:06;2.43;;;1.47;;
2326;SDS011;1174;51.588;7.328;2024-02-16T00:03:33;6.07;;;2.00;;
2326;SDS011;1174;51.588;7.328;2024-02-16T00:06:01;1.77;;;1.27;;
2326;SDS011;1174;51.588;7.328;2024-02-16T00:08:27;1.67;;;1.27;;
2326;SDS011;1174;51.588;7.328;2024-02-16T00:10:55;2.80;;;1.40;;
2326;SDS011;1174;51.588;7.328;2024-02-16T00:13:22;2.07;;;1.50;;
2326;SDS011;1174;51.588;7.328;2024-02-16T00:15:48;1.80;;;1.13;;
2326;SDS011;1174;51.588;7.328;2024-02-16T00:18:15;1.57;;;1.00;;
2326;SDS011;1174;51.588;7.328;2024-02-16T00:20:42;1.40;;;1.27;;
2326;SDS011;1174;51.588;7.328;2024-02-16T00:23:10;2.47;;;0.97;;
2326;SDS011;1174;51.588;7.328;2024-02-16T00:25:37;6.40;;;1.73;;
2326;SDS011;1174;51.588;7.328;2024-02-16T00:28:05;1.87;;;1.40;;
2326;SDS011;1174;51.588;7.328;2024-02-16T00:30:32;3.03;;;1.40;;
2326;SDS011;1174;51.588;7.328;2024-02-16T00:32:59;2.07;;;1.10;;
2326;SDS011;1174;51.588;7.328;2024-02-16T00:35:26;2.13;;;1.20;;
2326;SDS011;1174;51.588;7.328;2024-02-16T00:37:52;1.30;;;1.00;;
2326;SDS011;1174;51.588;7.328;2024-02-16T00:40:20;5.70;;;1.43;;
2326;SDS011;1174;51.588;7.328;2024-02-16T00:42:48;2.43;;;2.10;;
2326;SDS011;1174;51.588;7.328;2024-02-16T00:45:14;1.57;;;1.30;;
2326;SDS011;1174;51.588;7.328;2024-02-16T00:47:41;1.40;;;1.30;;
2326;SDS011;1174;51.588;7.328;2024-02-16T00:50:10;2.33;;;1.30;;
2326;SDS011;1174;51.588;7.328;2024-02-16T00:52:36;2.80;;;1.40;;
2326;SDS011;1174;51.588;7.328;2024-02-16T00:55:04;3.23;;;2.30;;
2326;SDS011;1174;51.588;7.328;2024-02-16T00:57:33;2.33;;;1.43;;
2326;SDS011;1174;51.588;7.328;2024-02-16T00:59:59;2.87;;;1.00;;
2326;SDS011;1174;51.588;7.328;2024-02-16T01:02:28;2.73;;;1.40;;
2326;SDS011;1174;51.588;7.328;2024-02-16T01:04:56;3.20;;;1.40;;
2326;SDS011;1174;51.588;7.328;2024-02-16T01:07:27;1.33;;;1.00;;
2326;SDS011;1174;51.588;7.328;2024-02-16T01:09:53;1.30;;;1.20;;
2326;SDS011;1174;51.588;7.328;2024-02-16T01:12:21;1.20;;;1.10;;
2326;SDS011;1174;51.588;7.328;2024-02-16T01:14:49;1.80;;;1.37;;
2326;SDS011;1174;51.588;7.328;2024-02-16T01:17:16;1.50;;;1.30;;
2326;SDS011;1174;51.588;7.328;2024-02-16T01:19:42;2.70;;;1.10;;
2326;SDS011;1174;51.588;7.328;2024-02-16T01:22:08;2.60;;;1.23;;
2326;SDS011;1174;51.588;7.328;2024-02-16T01:24:35;3.53;;;1.30;;
2326;SDS011;1174;51.588;7.328;2024-02-16T01:27:02;2.60;;;1.20;;
2326;SDS011;1174;51.588;7.328;2024-02-16T01:29:29;1.43;;;1.30;;
2326;SDS011;1174;51.588;7.328;2024-02-16T01:31:58;1.77;;;1.20;;
2326;SDS011;1174;51.588;7.328;2024-02-16T01:34:25;4.27;;;1.90;;
2326;SDS011;1174;51.588;7.328;2024-02-16T01:36:52;1.53;;;1.07;;
2326;SDS011;1174;51.588;7.328;2024-02-16T01:39:19;1.60;;;1.30;;
2326;SDS011;1174;51.588;7.328;2024-02-16T01:41:45;1.30;;;1.20;;
2326;SDS011;1174;51.588;7.328;2024-02-16T01:44:12;1.30;;;1.20;;
2326;SDS011;1174;51.588;7.328;2024-02-16T01:46:41;2.07;;;1.50;;
2326;SDS011;1174;51.588;7.328;2024-02-16T01:49:10;1.30;;;1.00;;
2326;SDS011;1174;51.588;7.328;2024-02-16T01:51:39;4.73;;;1.40;;
2326;SDS011;1174;51.588;7.328;2024-02-16T01:54:06;2.33;;;2.03;;
2326;SDS011;1174;51.588;7.328;2024-02-16T01:56:33;2.47;;;1.37;;
2326;SDS011;1174;51.588;7.328;2024-02-16T01:59:00;1.40;;;1.30;;
2326;SDS011;1174;51.588;7.328;2024-02-16T02:01:27;2.10;;;1.47;;
2326;SDS011;1174;51.588;7.328;2024-02-16T02:03:53;2.50;;;1.10;;
2326;SDS011;1174;51.588;7.328;2024-02-16T02:06:21;1.50;;;1.30;;
2326;SDS011;1174;51.588;7.328;2024-02-16T02:08:48;1.87;;;1.20;;
2326;SDS011;1174;51.588;7.328;2024-02-16T02:11:15;1.90;;;1.27;;
2326;SDS011;1174;51.588;7.328;2024-02-16T02:13:41;1.83;;;1.17;;
2326;SDS011;1174;51.588;7.328;2024-02-16T02:16:08;1.80;;;1.60;;
2326;SDS011;1174;51.588;7.328;2024-02-16T02:18:36;2.27;;;1.30;;
2326;SDS011;1174;51.588;7.328;2024-02-16T02:21:03;3.30;;;1.40;;
2326;SDS011;1174;51.588;7.328;2024-02-16T02:23:32;4.03;;;1.50;;
2326;SDS011;1174;51.588;7.328;2024-02-16T02:25:59;1.40;;;1.10;;
2326;SDS011;1174;51.588;7.328;2024-02-16T02:28:26;3.30;;;1.30;;
2326;SDS011;1174;51.588;7.328;2024-02-16T02:30:54;7.63;;;1.40;;
2326;SDS011;1174;51.588;7.328;2024-02-16T02:33:20;1.60;;;1.20;;
2326;SDS011;1174;51.588;7.328;2024-02-16T02:35:47;1.90;;;1.20;;
2326;SDS011;1174;51.588;7.328;2024-02-16T02:38:14;4.00;;;1.57;;
2326;SDS011;1174;51.588;7.328;2024-02-16T02:40:42;1.80;;;1.40;;
2326;SDS011;1174;51.588;7.328;2024-02-16T02:43:09;1.40;;;1.10;;
2326;SDS011;1174;51.588;7.328;2024-02-16T02:45:35;1.50;;;1.10;;
2326;SDS011;1174;51.588;7.328;2024-02-16T02:48:02;2.70;;;1.50;;
2326;SDS011;1174;51.588;7.328;2024-02-16T02:50:29;1.83;;;1.20;;
2326;SDS011;1174;51.588;7.328;2024-02-16T02:52:56;1.57;;;1.47;;
2326;SDS011;1174;51.588;7.328;2024-02-16T02:55:23;1.83;;;1.20;;
2326;SDS011;1174;51.588;7.328;2024-02-16T02:57:51;2.33;;;2.13;;
2326;SDS011;1174;51.588;7.328;2024-02-16T03:00:18;1.67;;;1.27;;
2326;SDS011;1174;51.588;7.328;2024-02-16T03:02:45;2.80;;;1.20;;
2326;SDS011;1174;51.588;7.328;2024-02-16T03:05:12;3.03;;;1.10;;
2326;SDS011;1174;51.588;7.328;2024-02-16T03:07:39;2.70;;;1.43;;
2326;SDS011;1174;51.588;7.328;2024-02-16T03:10:06;1.47;;;1.33;;
2326;SDS011;1174;51.588;7.328;2024-02-16T03:12:34;2.60;;;1.60;;
2326;SDS011;1174;51.588;7.328;2024-02-16T03:15:02;1.63;;;1.23;;
2326;SDS011;1174;51.588;7.328;2024-02-16T03:17:30;2.17;;;1.73;;
2326;SDS011;1174;51.588;7.328;2024-02-16T03:19:56;3.03;;;1.70;;
2326;SDS011;1174;51.588;7.328;2024-02-16T03:22:23;2.10;;;1.20;;
2326;SDS011;1174;51.588;7.328;2024-02-16T03:24:50;1.97;;;1.27;;
2326;SDS011;1174;51.588;7.328;2024-02-16T03:27:16;2.00;;;1.33;;
2326;SDS011;1174;51.588;7.328;2024-02-16T03:29:43;3.07;;;1.37;;
2326;SDS011;1174;51.588;7.328;2024-02-16T03:32:11;2.23;;;1.43;;
2326;SDS011;1174;51.588;7.328;2024-02-16T03:34:38;9.20;;;1.30;;
2326;SDS011;1174;51.588;7.328;2024-02-16T03:37:05;1.40;;;1.20;;
2326;SDS011;1174;51.588;7.328;2024-02-16T03:39:31;1.97;;;1.47;;
2326;SDS011;1174;51.588;7.328;2024-02-16T03:41:58;1.20;;;1.07;;
2326;SDS011;1174;51.588;7.328;2024-02-16T03:44:25;2.10;;;1.40;;
2326;SDS011;1174;51.588;7.328;2024-02-16T03:46:52;4.00;;;1.20;;
2326;SDS011;1174;51.588;7.328;2024-02-16T03:49:20;4.40;;;1.37;;
2326;SDS011;1174;51.588;7.328;2024-02-16T03:51:46;1.37;;;1.27;;
2326;SDS011;1174;51.588;7.328;2024-02-16T03:54:13;3.77;;;1.73;;
2326;SDS011;1174;51.588;7.328;2024-02-16T03:56:40;1.80;;;1.50;;
2326;SDS011;1174;51.588;7.328;2024-02-16T03:59:07;1.20;;;1.00;;
2326;SDS011;1174;51.588;7.328;2024-02-16T04:01:35;3.80;;;1.40;;
2326;SDS011;1174;51.588;7.328;2024-02-16T04:04:02;2.10;;;1.47;;
2326;SDS011;1174;51.588;7.328;2024-02-16T04:06:30;1.80;;;1.27;;
2326;SDS011;1174;51.588;7.328;2024-02-16T04:08:57;3.27;;;1.80;;
2326;SDS011;1174;51.588;7.328;2024-02-16T04:11:23;1.40;;;1.20;;
2326;SDS011;1174;51.588;7.328;2024-02-16T04:13:54;2.23;;;1.60;;
2326;SDS011;1174;51.588;7.328;2024-02-16T04:16:21;3.10;;;1.43;;
2326;SDS011;1174;51.588;7.328;2024-02-16T04:18:49;1.63;;;1.40;;
2326;SDS011;1174;51.588;7.328;2024-02-16T04:21:16;1.30;;;1.20;;
2326;SDS011;1174;51.588;7.328;2024-02-16T04:23:44;1.63;;;1.10;;
2326;SDS011;1174;51.588;7.328;2024-02-16T04:26:11;1.30;;;1.10;;
2326;SDS011;1174;51.588;7.328;2024-02-16T04:28:37;2.80;;;1.07;;
2326;SDS011;1174;51.588;7.328;2024-02-16T04:31:04;1.90;;;1.60;;
2326;SDS011;1174;51.588;7.328;2024-02-16T04:33:30;2.47;;;1.27;;
2326;SDS011;1174;51.588;7.328;2024-02-16T04:35:57;1.53;;;1.10;;
2326;SDS011;1174;51.588;7.328;2024-02-16T04:38:24;2.67;;;1.43;;
2326;SDS011;1174;51.588;7.328;2024-02-16T04:40:52;1.60;;;1.30;;
2326;SDS011;1174;51.588;7.328;2024-02-16T04:43:19;1.73;;;1.30;;
2326;SDS011;1174;51.588;7.328;2024-02-16T04:45:46;2.13;;;1.47;;
2326;SDS011;1174;51.588;7.328;2024-02-16T04:48:13;2.17;;;1.47;;
2326;SDS011;1174;51.588;7.328;2024-02-16T04:50:41;5.80;;;1.90;;
2326;SDS011;1174;51.588;7.328;2024-02-16T04:53:11;2.13;;;1.83;;
2326;SDS011;1174;51.588;7.328;2024-02-16T04:55:37;2.30;;;1.30;;
2326;SDS011;1174;51.588;7.328;2024-02-16T04:58:05;2.47;;;1.80;;
2326;SDS011;1174;51.588;7.328;2024-02-16T05:00:34;2.43;;;1.80;;
2326;SDS011;1174;51.588;7.328;2024-02-16T05:03:01;3.80;;;1.17;;
2326;SDS011;1174;51.588;7.328;2024-02-16T05:05:28;1.43;;;1.10;;
2326;SDS011;1174;51.588;7.328;2024-02-16T05:07:55;1.83;;;1.70;;
2326;SDS011;1174;51.588;7.328;2024-02-16T05:10:22;2.00;;;1.43;;
2326;SDS011;1174;51.588;7.328;2024-02-16T05:12:49;7.10;;;3.03;;
2326;SDS011;1174;51.588;7.328;2024-02-16T05:15:17;4.70;;;2.73;;
2326;SDS011;1174;51.588;7.328;2024-02-16T05:17:46;1.87;;;1.57;;
2326;SDS011;1174;51.588;7.328;2024-02-16T05:20:14;5.27;;;2.67;;
2326;SDS011;1174;51.588;7.328;2024-02-16T05:22:41;14.00;;;3.33;;
2326;SDS011;1174;51.588;7.328;2024-02-16T05:25:08;2.30;;;1.70;;
2326;SDS011;1174;51.588;7.328;2024-02-16T05:27:36;4.93;;;1.87;;
2326;SDS011;1174;51.588;7.328;2024-02-16T05:30:04;1.80;;;1.70;;
2326;SDS011;1174;51.588;7.328;2024-02-16T05:32:34;2.03;;;1.83;;
2326;SDS011;1174;51.588;7.328;2024-02-16T05:35:02;3.07;;;2.00;;
2326;SDS011;1174;51.588;7.328;2024-02-16T05:37:36;1.63;;;1.50;;
2326;SDS011;1174;51.588;7.328;2024-02-16T05:40:06;1.57;;;1.47;;
2326;SDS011;1174;51.588;7.328;2024-02-16T05:42:44;2.00;;;1.80;;
2326;SDS011;1174;51.588;7.328;2024-02-16T05:45:12;1.33;;;1.13;;
2326;SDS011;1174;51.588;7.328;2024-02-16T05:47:40;2.13;;;1.50;;
2326;SDS011;1174;51.588;7.328;2024-02-16T05:50:08;3.83;;;1.63;;
2326;SDS011;1174;51.588;7.328;2024-02-16T05:52:37;8.50;;;1.43;;
2326;SDS011;1174;51.588;7.328;2024-02-16T05:55:04;1.83;;;1.43;;
2326;SDS011;1174;51.588;7.328;2024-02-16T05:57:32;1.70;;;1.60;;
2326;SDS011;1174;51.588;7.328;2024-02-16T05:59:58;1.80;;;1.70;;
2326;SDS011;1174;51.588;7.328;2024-02-16T06:02:25;5.40;;;1.80;;
2326;SDS011;1174;51.588;7.328;2024-02-16T06:04:53;3.30;;;2.10;;
2326;SDS011;1174;51.588;7.328;2024-02-16T06:07:20;1.90;;;1.40;;
2326;SDS011;1174;51.588;7.328;2024-02-16T06:09:47;1.50;;;1.40;;
2326;SDS011;1174;51.588;7.328;2024-02-16T06:12:14;2.20;;;1.70;;
2326;SDS011;1174;51.588;7.328;2024-02-16T06:14:41;2.13;;;1.90;;
2326;SDS011;1174;51.588;7.328;2024-02-16T06:17:07;2.00;;;1.70;;
2326;SDS011;1174;51.588;7.328;2024-02-16T06:19:34;1.57;;;1.47;;
2326;SDS011;1174;51.588;7.328;2024-02-16T06:22:02;4.70;;;1.60;;
2326;SDS011;1174;51.588;7.328;2024-02-16T06:24:29;2.23;;;1.20;;
2326;SDS011;1174;51.588;7.328;2024-02-16T06:26:56;3.10;;;1.93;;
2326;SDS011;1174;51.588;7.328;2024-02-16T06:29:23;1.83;;;1.60;;
2326;SDS011;1174;51.588;7.328;2024-02-16T06:31:50;2.20;;;1.23;;
2326;SDS011;1174;51.588;7.328;2024-02-16T06:34:17;13.60;;;1.73;;
2326;SDS011;1174;51.588;7.328;2024-02-16T06:36:44;7.30;;;2.30;;
2326;SDS011;1174;51.588;7.328;2024-02-16T06:39:12;3.23;;;1.53;;
2326;SDS011;1174;51.588;7.328;2024-02-16T06:41:43;3.47;;;2.03;;
2326;SDS011;1174;51.588;7.328;2024-02-16T06:44:11;7.80;;;2.33;;
2326;SDS011;1174;51.588;7.328;2024-02-16T06:46:40;2.43;;;1.40;;
2326;SDS011;1174;51.588;7.328;2024-02-16T06:49:07;2.20;;;1.40;;
2326;SDS011;1174;51.588;7.328;2024-02-16T06:51:35;3.23;;;1.40;;
2326;SDS011;1174;51.588;7.328;2024-02-16T06:54:02;5.00;;;4.23;;
2326;SDS011;1174;51.588;7.328;2024-02-16T06:56:30;2.80;;;2.00;;
2326;SDS011;1174;51.588;7.328;2024-02-16T06:58:57;1.93;;;1.73;;
2326;SDS011;1174;51.588;7.328;2024-02-16T07:01:24;1.40;;;1.30;;
2326;SDS011;1174;51.588;7.328;2024-02-16T07:03:52;3.37;;;2.03;;
2326;SDS011;1174;51.588;7.328;2024-02-16T07:06:19;2.50;;;1.90;;
2326;SDS011;1174;51.588;7.328;2024-02-16T07:08:46;1.43;;;1.33;;
2326;SDS011;1174;51.588;7.328;2024-02-16T07:11:12;2.50;;;1.77;;
2326;SDS011;1174;51.588;7.328;2024-02-16T07:13:40;3.30;;;1.90;;
2326;SDS011;1174;51.588;7.328;2024-02-16T07:16:07;1.53;;;1.43;;
2326;SDS011;1174;51.588;7.328;2024-02-16T07:18:35;2.27;;;1.87;;
2326;SDS011;1174;51.588;7.328;2024-02-16T07:21:02;1.80;;;1.43;;
2326;SDS011;1174;51.588;7.328;2024-02-16T07:23:29;1.80;;;1.43;;
2326;SDS011;1174;51.588;7.328;2024-02-16T07:25:56;3.03;;;1.77;;
2326;SDS011;1174;51.588;7.328;2024-02-16T07:28:23;2.43;;;1.70;;
2326;SDS011;1174;51.588;7.328;2024-02-16T07:30:52;2.90;;;1.60;;
2326;SDS011;1174;51.588;7.328;2024-02-16T07:33:19;3.50;;;1.97;;
2326;SDS011;1174;51.588;7.328;2024-02-16T07:35:49;2.60;;;1.80;;
2326;SDS011;1174;51.588;7.328;2024-02-16T07:38:17;5.20;;;1.83;;
2326;SDS011;1174;51.588;7.328;2024-02-16T07:40:43;6.00;;;2.20;;
2326;SDS011;1174;51.588;7.328;2024-02-16T07:43:11;2.80;;;2.27;;
2326;SDS011;1174;51.588;7.328;2024-02-16T07:45:38;2.17;;;1.30;;
2326;SDS011;1174;51.588;7.328;2024-02-16T07:48:06;3.17;;;1.87;;
2326;SDS011;1174;51.588;7.328;2024-02-16T07:50:33;3.40;;;1.57;;
2326;SDS011;1174;51.588;7.328;2024-02-16T07:53:00;4.20;;;1.53;;
2326;SDS011;1174;51.588;7.328;2024-02-16T07:55:27;2.17;;;1.30;;
2326;SDS011;1174;51.588;7.328;2024-02-16T07:57:53;2.23;;;1.70;;
2326;SDS011;1174;51.588;7.328;2024-02-16T08:00:20;2.50;;;2.20;;
2326;SDS011;1174;51.588;7.328;2024-02-16T08:02:47;3.00;;;1.43;;
2326;SDS011;1174;51.588;7.328;2024-02-16T08:05:15;5.73;;;2.60;;
2326;SDS011;1174;51.588;7.328;2024-02-16T08:07:44;4.50;;;2.20;;
2326;SDS011;1174;51.588;7.328;2024-02-16T08:10:12;2.80;;;1.97;;
2326;SDS011;1174;51.588;7.328;2024-02-16T08:12:39;2.13;;;1.60;;
2326;SDS011;1174;51.588;7.328;2024-02-16T08:15:07;1.60;;;1.50;;
2326;SDS011;1174;51.588;7.328;2024-02-16T08:17:35;2.03;;;1.60;;
2326;SDS011;1174;51.588;7.328;2024-02-16T08:20:03;2.30;;;1.93;;
2326;SDS011;1174;51.588;7.328;2024-02-16T08:22:31;5.33;;;2.70;;
2326;SDS011;1174;51.588;7.328;2024-02-16T08:24:59;1.60;;;1.50;;
2326;SDS011;1174;51.588;7.328;2024-02-16T08:27:26;4.43;;;1.97;;
2326;SDS011;1174;51.588;7.328;2024-02-16T08:29:52;2.63;;;1.40;;
2326;SDS011;1174;51.588;7.328;2024-02-16T08:32:19;2.20;;;1.77;;
2326;SDS011;1174;51.588;7.328;2024-02-16T08:34:46;3.20;;;2.73;;
2326;SDS011;1174;51.588;7.328;2024-02-16T08:37:15;2.47;;;1.57;;
2326;SDS011;1174;51.588;7.328;2024-02-16T08:39:43;3.00;;;1.67;;
2326;SDS011;1174;51.588;7.328;2024-02-16T08:42:10;2.73;;;1.63;;
2326;SDS011;1174;51.588;7.328;2024-02-16T08:44:37;2.37;;;1.87;;
2326;SDS011;1174;51.588;7.328;2024-02-16T08:47:05;2.27;;;1.60;;
2326;SDS011;1174;51.588;7.328;2024-02-16T08:49:32;3.67;;;2.03;;
2326;SDS011;1174;51.588;7.328;2024-02-16T08:51:59;5.77;;;1.97;;
2326;SDS011;1174;51.588;7.328;2024-02-16T08:54:26;4.60;;;2.17;;
2326;SDS011;1174;51.588;7.328;2024-02-16T08:56:54;3.20;;;1.90;;
2326;SDS011;1174;51.588;7.328;2024-02-16T08:59:21;3.27;;;1.80;;
2326;SDS011;1174;51.588;7.328;2024-02-16T09:01:48;2.70;;;1.83;;
2326;SDS011;1174;51.588;7.328;2024-02-16T09:04:15;1.97;;;1.77;;
2326;SDS011;1174;51.588;7.328;2024-02-16T09:06:41;2.67;;;2.00;;
2326;SDS011;1174;51.588;7.328;2024-02-16T09:09:08;1.80;;;1.70;;
2326;SDS011;1174;51.588;7.328;2024-02-16T09:11:35;1.97;;;1.63;;
2326;SDS011;1174;51.588;7.328;2024-02-16T09:14:03;6.23;;;2.37;;
2326;SDS011;1174;51.588;7.328;2024-02-16T09:16:30;14.03;;;2.60;;
2326;SDS011;1174;51.588;7.328;2024-02-16T09:18:57;3.77;;;3.27;;
2326;SDS011;1174;51.588;7.328;2024-02-16T09:21:24;3.40;;;2.20;;
2326;SDS011;1174;51.588;7.328;2024-02-16T09:23:54;3.50;;;1.60;;
2326;SDS011;1174;51.588;7.328;2024-02-16T09:26:23;5.30;;;1.70;;
2326;SDS011;1174;51.588;7.328;2024-02-16T09:28:51;7.03;;;3.40;;
2326;SDS011;1174;51.588;7.328;2024-02-16T09:31:20;5.33;;;3.00;;
2326;SDS011;1174;51.588;7.328;2024-02-16T09:33:47;6.40;;;3.20;;
2326;SDS011;1174;51.588;7.328;2024-02-16T09:36:16;4.43;;;2.70;;
2326;SDS011;1174;51.588;7.328;2024-02-16T09:38:43;2.30;;;1.90;;
2326;SDS011;1174;51.588;7.328;2024-02-16T09:41:10;4.37;;;2.20;;
2326;SDS011;1174;51.588;7.328;2024-02-16T09:43:37;9.40;;;1.90;;
2326;SDS011;1174;51.588;7.328;2024-02-16T09:46:04;2.23;;;1.90;;
2326;SDS011;1174;51.588;7.328;2024-02-16T09:48:32;3.50;;;1.63;;
2326;SDS011;1174;51.588;7.328;2024-02-16T09:50:59;2.23;;;1.53;;
2326;SDS011;1174;51.588;7.328;2024-02-16T09:53:27;2.63;;;1.83;;
2326;SDS011;1174;51.588;7.328;2024-02-16T09:55:54;12.63;;;2.10;;
2326;SDS011;1174;51.588;7.328;2024-02-16T09:58:21;7.53;;;2.83;;
2326;SDS011;1174;51.588;7.328;2024-02-16T10:00:49;2.23;;;1.50;;
2326;SDS011;1174;51.588;7.328;2024-02-16T10:03:26;1.63;;;1.47;;
2326;SDS011;1174;51.588;7.328;2024-02-16T10:06:05;3.13;;;1.50;;
2326;SDS011;1174;51.588;7.328;2024-02-16T10:08:32;4.40;;;1.57;;
2326;SDS011;1174;51.588;7.328;2024-02-16T10:11:02;2.60;;;1.67;;
2326;SDS011;1174;51.588;7.328;2024-02-16T10:13:30;3.30;;;2.87;;
2326;SDS011;1174;51.588;7.328;2024-02-16T10:16:06;3.57;;;2.13;;
2326;SDS011;1174;51.588;7.328;2024-02-16T10:18:34;1.60;;;1.50;;
2326;SDS011;1174;51.588;7.328;2024-02-16T10:21:01;5.20;;;1.97;;
2326;SDS011;1174;51.588;7.328;2024-02-16T10:23:32;3.07;;;1.77;;
2326;SDS011;1174;51.588;7.328;2024-02-16T10:25:58;6.43;;;2.60;;
2326;SDS011;1174;51.588;7.328;2024-02-16T10:28:26;1.93;;;1.60;;
2326;SDS011;1174;51.588;7.328;2024-02-16T10:30:56;2.20;;;1.77;;
2326;SDS011;1174;51.588;7.328;2024-02-16T10:33:26;2.40;;;1.67;;
2326;SDS011;1174;51.588;7.328;2024-02-16T10:35:54;3.33;;;1.97;;
2326;SDS011;1174;51.588;7.328;2024-02-16T10:38:22;4.50;;;1.90;;
2326;SDS011;1174;51.588;7.328;2024-02-16T10:40:50;2.77;;;1.80;;
2326;SDS011;1174;51.588;7.328;2024-02-16T10:43:17;6.40;;;2.23;;
2326;SDS011;1174;51.588;7.328;2024-02-16T10:45:46;4.07;;;2.20;;
2326;SDS011;1174;51.588;7.328;2024-02-16T10:48:17;4.70;;;2.50;;
2326;SDS011;1174;51.588;7.328;2024-02-16T10:50:44;2.13;;;1.93;;
2326;SDS011;1174;51.588;7.328;2024-02-16T10:53:12;2.40;;;2.00;;
2326;SDS011;1174;51.588;7.328;2024-02-16T10:55:44;3.03;;;2.10;;
2326;SDS011;1174;51.588;7.328;2024-02-16T10:58:12;18.80;;;4.87;;
2326;SDS011;1174;51.588;7.328;2024-02-16T11:00:51;2.73;;;1.97;;
2326;SDS011;1174;51.588;7.328;2024-02-16T11:03:21;6.63;;;2.23;;
2326;SDS011;1174;51.588;7.328;2024-02-16T11:05:50;11.50;;;3.33;;
2326;SDS011;1174;51.588;7.328;2024-02-16T11:08:18;3.93;;;1.90;;
2326;SDS011;1174;51.588;7.328;2024-02-16T11:10:53;13.50;;;3.73;;
2326;SDS011;1174;51.588;7.328;2024-02-16T11:13:23;4.23;;;2.40;;
2326;SDS011;1174;51.588;7.328;2024-02-16T11:15:56;3.17;;;2.10;;
2326;SDS011;1174;51.588;7.328;2024-02-16T11:18:24;2.90;;;2.03;;
2326;SDS011;1174;51.588;7.328;2024-02-16T11:20:51;2.23;;;1.87;;
2326;SDS011;1174;51.588;7.328;2024-02-16T11:23:24;3.43;;;2.20;;
2326;SDS011;1174;51.588;7.328;2024-02-16T11:25:53;6.10;;;3.23;;
2326;SDS011;1174;51.588;7.328;2024-02-16T11:28:20;3.40;;;2.90;;
2326;SDS011;1174;51.588;7.328;2024-02-16T11:30:48;6.40;;;2.30;;
2326;SDS011;1174;51.588;7.328;2024-02-16T11:33:15;6.50;;;2.00;;
2326;SDS011;1174;51.588;7.328;2024-02-16T11:35:41;1.97;;;1.27;;
2326;SDS011;1174;51.588;7.328;2024-02-16T11:38:18;2.20;;;1.83;;
2326;SDS011;1174;51.588;7.328;2024-02-16T11:40:52;4.70;;;1.93;;
2326;SDS011;1174;51.588;7.328;2024-02-16T11:43:20;2.90;;;2.47;;
2326;SDS011;1174;51.588;7.328;2024-02-16T11:45:49;6.83;;;3.10;;
2326;SDS011;1174;51.588;7.328;2024-02-16T11:48:20;9.63;;;2.57;;
2326;SDS011;1174;51.588;7.328;2024-02-16T11:50:48;1.63;;;1.53;;
2326;SDS011;1174;51.588;7.328;2024-02-16T11:53:16;4.50;;;2.87;;
2326;SDS011;1174;51.588;7.328;2024-02-16T11:55:47;4.77;;;2.80;;
2326;SDS011;1174;51.588;7.328;2024-02-16T11:58:15;3.50;;;2.33;;
2326;SDS011;1174;51.588;7.328;2024-02-16T12:00:43;5.90;;;2.63;;
2326;SDS011;1174;51.588;7.328;2024-02-16T12:03:11;3.73;;;2.43;;
2326;SDS011;1174;51.588;7.328;2024-02-16T12:05:38;2.30;;;1.57;;
2326;SDS011;1174;51.588;7.328;2024-02-16T12:08:05;10.73;;;2.20;;
2326;SDS011;1174;51.588;7.328;2024-02-16T12:10:32;4.47;;;2.20;;
2326;SDS011;1174;51.588;7.328;2024-02-16T12:13:01;2.30;;;2.10;;
2326;SDS011;1174;51.588;7.328;2024-02-16T12:15:28;5.20;;;2.40;;
2326;SDS011;1174;51.588;7.328;2024-02-16T12:17:59;7.37;;;3.00;;
2326;SDS011;1174;51.588;7.328;2024-02-16T12:20:29;4.80;;;3.50;;
2326;SDS011;1174;51.588;7.328;2024-02-16T12:22:57;5.17;;;2.60;;
2326;SDS011;1174;51.588;7.328;2024-02-16T12:25:27;7.20;;;2.30;;
2326;SDS011;1174;51.588;7.328;2024-02-16T12:27:54;4.67;;;2.17;;
2326;SDS011;1174;51.588;7.328;2024-02-16T12:30:20;3.47;;;2.50;;
2326;SDS011;1174;51.588;7.328;2024-02-16T12:32:47;3.90;;;2.40;;
2326;SDS011;1174;51.588;7.328;2024-02-16T12:35:14;3.73;;;3.10;;
2326;SDS011;1174;51.588;7.328;2024-02-16T12:37:42;4.27;;;2.43;;
2326;SDS011;1174;51.588;7.328;2024-02-16T12:40:09;8.50;;;3.00;;
2326;SDS011;1174;51.588;7.328;2024-02-16T12:42:36;6.80;;;2.90;;
2326;SDS011;1174;51.588;7.328;2024-02-16T12:45:03;2.63;;;1.93;;
2326;SDS011;1174;51.588;7.328;2024-02-16T12:47:30;4.77;;;2.60;;
2326;SDS011;1174;51.588;7.328;2024-02-16T12:49:57;5.87;;;2.67;;
2326;SDS011;1174;51.588;7.328;2024-02-16T12:52:24;3.63;;;2.10;;
2326;SDS011;1174;51.588;7.328;2024-02-16T12:54:52;4.23;;;2.90;;
2326;SDS011;1174;51.588;7.328;2024-02-16T12:57:20;4.60;;;2.40;;
2326;SDS011;1174;51.588;7.328;2024-02-16T12:59:46;2.27;;;2.03;;
2326;SDS011;1174;51.588;7.328;2024-02-16T13:02:14;6.67;;;2.50;;
2326;SDS011;1174;51.588;7.328;2024-02-16T13:04:41;6.07;;;3.70;;
2326;SDS011;1174;51.588;7.328;2024-02-16T13:07:07;3.47;;;2.30;;
2326;SDS011;1174;51.588;7.328;2024-02-16T13:09:34;4.17;;;3.63;;
2326;SDS011;1174;51.588;7.328;2024-02-16T13:12:02;5.50;;;2.77;;
2326;SDS011;1174;51.588;7.328;2024-02-16T13:14:29;5.73;;;3.23;;
2326;SDS011;1174;51.588;7.328;2024-02-16T13:16:56;4.80;;;3.40;;
2326;SDS011;1174;51.588;7.328;2024-02-16T13:19:23;7.33;;;3.37;;
2326;SDS011;1174;51.588;7.328;2024-02-16T13:21:50;3.10;;;2.90;;
2326;SDS011;1174;51.588;7.328;2024-02-16T13:24:17;4.00;;;2.90;;
2326;SDS011;1174;51.588;7.328;2024-02-16T13:26:44;4.67;;;3.23;;
2326;SDS011;1174;51.588;7.328;2024-02-16T13:29:12;2.67;;;2.47;;
2326;SDS011;1174;51.588;7.328;2024-02-16T13:31:39;5.23;;;3.27;;
2326;SDS011;1174;51.588;7.328;2024-02-16T13:34:07;5.60;;;3.60;;
2326;SDS011;1174;51.588;7.328;2024-02-16T13:36:34;8.90;;;3.20;;
2326;SDS011;1174;51.588;7.328;2024-02-16T13:39:01;5.53;;;2.53;;
2326;SDS011;1174;51.588;7.328;2024-02-16T13:41:28;5.63;;;3.20;;
2326;SDS011;1174;51.588;7.328;2024-02-16T13:43:54;3.83;;;3.10;;
2326;SDS011;1174;51.588;7.328;2024-02-16T13:46:22;4.73;;;3.30;;
2326;SDS011;1174;51.588;7.328;2024-02-16T13:48:49;4.93;;;4.30;;
2326;SDS011;1174;51.588;7.328;2024-02-16T13:51:16;17.60;;;5.00;;
2326;SDS011;1174;51.588;7.328;2024-02-16T13:53:44;7.13;;;5.80;;
2326;SDS011;1174;51.588;7.328;2024-02-16T13:56:11;13.70;;;7.60;;
2326;SDS011;1174;51.588;7.328;2024-02-16T13:58:39;6.30;;;4.70;;
2326;SDS011;1174;51.588;7.328;2024-02-16T14:01:05;7.57;;;5.37;;
2326;SDS011;1174;51.588;7.328;2024-02-16T14:03:34;12.47;;;5.17;;
2326;SDS011;1174;51.588;7.328;2024-02-16T14:06:02;5.90;;;4.13;;
2326;SDS011;1174;51.588;7.328;2024-02-16T14:08:30;9.43;;;5.50;;
2326;SDS011;1174;51.588;7.328;2024-02-16T14:10:56;9.43;;;6.63;;
2326;SDS011;1174;51.588;7.328;2024-02-16T14:13:23;5.70;;;4.90;;
2326;SDS011;1174;51.588;7.328;2024-02-16T14:15:50;10.80;;;6.70;;
2326;SDS011;1174;51.588;7.328;2024-02-16T14:18:17;8.77;;;6.67;;
2326;SDS011;1174;51.588;7.328;2024-02-16T14:20:45;13.50;;;5.60;;
2326;SDS011;1174;51.588;7.328;2024-02-16T14:23:12;13.03;;;6.70;;
2326;SDS011;1174;51.588;7.328;2024-02-16T14:25:39;9.87;;;6.30;;
2326;SDS011;1174;51.588;7.328;2024-02-16T14:28:06;18.03;;;6.37;;
2326;SDS011;1174;51.588;7.328;2024-02-16T14:30:32;12.17;;;7.67;;
2326;SDS011;1174;51.588;7.328;2024-02-16T14:32:59;11.40;;;6.80;;
2326;SDS011;1174;51.588;7.328;2024-02-16T14:35:29;9.90;;;6.40;;
2326;SDS011;1174;51.588;7.328;2024-02-16T14:37:58;8.50;;;6.67;;
2326;SDS011;1174;51.588;7.328;2024-02-16T14:40:24;8.80;;;5.83;;
2326;SDS011;1174;51.588;7.328;2024-02-16T14:42:51;6.93;;;6.10;;
2326;SDS011;1174;51.588;7.328;2024-02-16T14:45:18;10.30;;;7.57;;
2326;SDS011;1174;51.588;7.328;2024-02-16T14:47:46;4.30;;;3.70;;
2326;SDS011;1174;51.588;7.328;2024-02-16T14:50:13;8.57;;;7.67;;
2326;SDS011;1174;51.588;7.328;2024-02-16T14:52:41;11.50;;;7.13;;
2326;SDS011;1174;51.588;7.328;2024-02-16T14:55:10;8.73;;;5.57;;
2326;SDS011;1174;51.588;7.328;2024-02-16T14:57:38;8.90;;;6.10;;
2326;SDS011;1174;51.588;7.328;2024-02-16T15:00:06;7.33;;;5.30;;
2326;SDS011;1174;51.588;7.328;2024-02-16T15:02:32;9.10;;;6.03;;
2326;SDS011;1174;51.588;7.328;2024-02-16T15:04:59;7.03;;;4.97;;
2326;SDS011;1174;51.588;7.328;2024-02-16T15:07:26;8.10;;;4.47;;
2326;SDS011;1174;51.588;7.328;2024-02-16T15:09:52;9.10;;;5.50;;
2326;SDS011;1174;51.588;7.328;2024-02-16T15:12:20;7.27;;;5.30;;
2326;SDS011;1174;51.588;7.328;2024-02-16T15:14:47;7.13;;;4.73;;
2326;SDS011;1174;51.588;7.328;2024-02-16T15:17:14;6.37;;;4.30;;